Roscoe, Texas
Current Conditions -  °F | °C
As of 5:35 AM on Tuesday 21 Oct 2014 (Local Time) from KSWW Reporting Station
Clear Clear  
Wind Chill: 58°   Ceiling: Unl
Heat Index: 58°   Visibility: 10mi
Dew Point: 54°   Wind: 8mph
Humidity: 85%   Direction: 190°S
Pressure: 30.12"   Gusts: NA
Location:  32.45°N, 100.54°W
Report Text: KSWW 211035Z AUTO 19007KT 10SM CLR 15/12 A3012 RMK AO2 T01470122
Loading
Personal Weather Stations






























Interactive Weather Map
Tropical Storm Tracking
New forecast layout! Learn more

10-Day Weather Forecast

Advertisements
Track Severe Weather on mobile